Time;durP1;ratioP1;P1;durP2;ratioP2;P2;SDS_P1;SDS_P2;PMS_P1;PMS_P2;Temp;Humidity;BMP_temperature;BMP_pressure;BME280_temperature;BME280_humidity;BME280_pressure;Samples;Min_cycle;Max_cycle;Signal;HPM_P1;HPM_P2
2022/06/22 00:01:54;;;;;;;1.67;1.20;;;22.50;65.10;;;;;;6159030;23;20009;-75
2022/06/22 00:04:52;;;;;;;2.30;1.48;;;22.50;65.00;;;;;;6175825;23;20574;-75
2022/06/22 00:07:24;;;;;;;1.75;1.23;;;22.50;65.10;;;;;;6240787;23;20057;-75
2022/06/22 00:10:08;;;;;;;5.70;1.50;;;22.50;65.20;;;;;;6244811;23;20016;-75
2022/06/22 00:12:34;;;;;;;4.18;1.30;;;22.50;65.20;;;;;;6245100;23;20428;-75
2022/06/22 00:15:01;;;;;;;3.80;1.38;;;22.50;65.30;;;;;;6219839;23;20003;-75
2022/06/22 00:17:30;;;;;;;4.47;1.50;;;22.60;65.30;;;;;;6220042;23;20026;-75
2022/06/22 00:20:08;;;;;;;2.83;1.48;;;22.50;65.20;;;;;;6244903;23;20022;-75
2022/06/22 00:22:52;;;;;;;1.60;1.23;;;22.60;65.30;;;;;;6244900;23;20004;-75
2022/06/22 00:25:21;;;;;;;2.33;1.20;;;22.60;65.30;;;;;;6246299;22;20076;-75
2022/06/22 00:27:47;;;;;;;2.90;1.42;;;22.50;65.20;;;;;;6220032;23;20030;-75
2022/06/22 00:30:20;;;;;;;4.13;1.20;;;22.60;65.30;;;;;;6244764;23;20004;-75
2022/06/22 00:32:54;;;;;;;1.48;1.20;;;22.60;65.20;;;;;;6220124;23;20006;-75
2022/06/22 00:35:46;;;;;;;1.95;1.30;;;22.60;65.20;;;;;;6244919;23;20000;-75
2022/06/22 00:38:23;;;;;;;2.22;1.08;;;22.50;65.20;;;;;;6244587;23;20004;-75
2022/06/22 00:40:54;;;;;;;2.55;1.27;;;22.50;65.30;;;;;;6244978;23;20004;-75
2022/06/22 00:43:19;;;;;;;1.42;1.17;;;22.50;65.20;;;;;;6220305;23;20027;-75
2022/06/22 00:45:45;;;;;;;1.48;1.38;;;22.50;65.30;;;;;;6244851;23;20440;-75
2022/06/22 00:48:14;;;;;;;9.27;1.83;;;22.50;65.30;;;;;;6219554;23;20016;-75
2022/06/22 00:50:45;;;;;;;2.40;1.30;;;22.50;65.50;;;;;;6246067;23;20507;-75
2022/06/22 00:53:17;;;;;;;1.90;1.30;;;22.50;65.40;;;;;;6244236;23;20034;-75
2022/06/22 00:55:48;;;;;;;;;;;22.50;65.50;;;;;;6219772;23;20314;-75
2022/06/22 00:58:34;;;;;;;1.35;1.25;;;22.50;65.40;;;;;;6244665;23;19899;-74
2022/06/22 01:01:22;;;;;;;2.60;1.23;;;22.50;65.50;;;;;;6222593;23;20399;-75
2022/06/22 01:04:02;;;;;;;2.10;1.20;;;22.60;65.50;;;;;;6222826;23;20011;-75
2022/06/22 01:06:45;;;;;;;2.05;1.13;;;22.50;65.50;;;;;;6245718;23;20012;-75
2022/06/22 01:09:48;;;;;;;3.15;1.45;;;22.50;65.40;;;;;;6244361;23;20004;-75
2022/06/22 01:12:36;;;;;;;1.50;1.35;;;22.50;65.40;;;;;;6244354;23;20348;-75
2022/06/22 01:15:32;;;;;;;2.25;1.42;;;22.50;65.50;;;;;;6207540;23;20004;-75
2022/06/22 01:18:15;;;;;;;1.83;1.45;;;22.50;65.50;;;;;;6246061;22;19996;-74
2022/06/22 01:21:03;;;;;;;1.70;1.10;;;22.50;65.50;;;;;;6219787;23;20000;-75
2022/06/22 01:23:46;;;;;;;1.35;1.00;;;22.50;65.50;;;;;;6245815;23;19996;-75
2022/06/22 01:26:49;;;;;;;1.58;1.30;;;22.50;65.50;;;;;;6245872;23;20007;-75
2022/06/22 01:29:23;;;;;;;1.80;1.15;;;22.50;65.40;;;;;;6245487;23;20003;-75
2022/06/22 01:32:00;;;;;;;2.78;1.50;;;22.50;65.50;;;;;;6244450;23;20482;-74
2022/06/22 01:34:31;;;;;;;1.88;1.20;;;22.50;65.50;;;;;;6219231;23;20436;-74
2022/06/22 01:37:03;;;;;;;2.58;1.20;;;22.50;65.50;;;;;;6245680;22;20000;-75
2022/06/22 01:39:29;;;;;;;;;;;22.50;65.40;;;;;;6244621;23;20384;-75
2022/06/22 01:41:58;;;;;;;1.33;1.23;;;22.50;65.40;;;;;;6244312;23;19900;-75
2022/06/22 01:44:49;;;;;;;2.05;1.20;;;22.50;65.50;;;;;;6245568;22;20082;-74
2022/06/22 01:47:36;;;;;;;3.70;1.65;;;22.50;65.50;;;;;;6243992;23;20317;-75
2022/06/22 01:50:02;;;;;;;3.10;1.33;;;22.50;65.50;;;;;;6243994;23;20053;-75
2022/06/22 01:52:43;;;;;;;3.60;1.40;;;22.50;65.50;;;;;;6245234;23;20008;-75
2022/06/22 01:55:47;;;;;;;1.73;1.25;;;22.50;65.50;;;;;;6244027;23;20345;-75
2022/06/22 01:58:19;;;;;;;1.25;1.10;;;22.50;65.50;;;;;;6242333;23;20455;-75
2022/06/22 02:00:47;;;;;;;1.25;1.15;;;22.50;65.50;;;;;;6245508;23;20000;-75
2022/06/22 02:03:34;;;;;;;1.20;1.10;;;22.50;65.60;;;;;;6218922;23;20000;-75
2022/06/22 02:09:26;;;;;;;1.20;1.10;;;22.50;66.50;;;;;;6154904;23;20449;-73
2022/06/22 02:12:18;;;;;;;1.48;1.20;;;22.50;65.60;;;;;;6177915;23;20013;-74
2022/06/22 02:14:41;;;;;;;1.48;0.88;;;22.50;65.60;;;;;;6174327;23;20005;-74
2022/06/22 02:17:07;;;;;;;4.03;1.25;;;22.50;65.60;;;;;;6155299;23;20363;-74
2022/06/22 02:19:35;;;;;;;1.30;1.20;;;22.50;65.60;;;;;;6178706;23;20410;-73
2022/06/22 02:22:01;;;;;;;1.40;1.17;;;22.50;65.60;;;;;;6178394;23;20476;-74
2022/06/22 02:24:36;;;;;;;1.52;1.30;;;22.50;65.60;;;;;;6155311;23;20006;-74
2022/06/22 02:27:09;;;;;;;1.23;1.10;;;22.50;65.60;;;;;;6155406;23;20005;-73
2022/06/22 02:29:45;;;;;;;1.95;1.40;;;22.50;65.60;;;;;;6155213;23;20341;-73
2022/06/22 02:32:16;;;;;;;2.60;1.55;;;22.50;65.60;;;;;;6178530;23;20017;-74
2022/06/22 02:34:43;;;;;;;2.03;1.30;;;22.50;65.60;;;;;;6177713;23;20076;-73
2022/06/22 02:37:08;;;;;;;2.15;1.38;;;22.40;65.60;;;;;;6178220;23;20013;-73
2022/06/22 02:39:42;;;;;;;2.15;1.45;;;22.40;65.60;;;;;;6178489;23;20002;-74
2022/06/22 02:44:52;;;;;;;1.58;1.40;;;22.40;65.60;;;;;;6174902;23;20144;-74
2022/06/22 02:47:31;;;;;;;1.30;1.20;;;22.40;65.70;;;;;;6178436;23;20045;-74
2022/06/22 02:50:13;;;;;;;2.83;1.30;;;22.40;65.70;;;;;;6154914;23;20001;-73
2022/06/22 02:52:46;;;;;;;2.00;1.10;;;22.40;65.70;;;;;;6177264;23;20040;-74
2022/06/22 02:55:12;;;;;;;;;;;22.40;65.70;;;;;;6178524;23;20430;-74
2022/06/22 02:58:25;;;;;;;1.50;1.15;;;22.40;65.70;;;;;;6178553;23;19906;-74
2022/06/22 03:00:51;;;;;;;2.70;1.25;;;22.40;65.70;;;;;;6149721;23;20010;-74
2022/06/22 03:03:16;;;;;;;2.28;1.35;;;22.40;65.80;;;;;;6178494;23;20085;-73
2022/06/22 03:05:46;;;;;;;4.15;1.33;;;22.40;65.80;;;;;;6178244;23;20037;-74
2022/06/22 03:08:13;;;;;;;1.65;1.20;;;22.40;65.80;;;;;;6197122;23;20488;-73
2022/06/22 03:10:58;;;;;;;2.80;1.30;;;22.40;65.90;;;;;;6208054;23;20036;-74
2022/06/22 03:13:28;;;;;;;2.40;1.38;;;22.40;65.80;;;;;;6183048;23;20322;-74
2022/06/22 03:15:53;;;;;;;0.98;0.90;;;22.40;65.90;;;;;;6183388;23;19997;-74
2022/06/22 03:18:23;;;;;;;3.95;1.23;;;22.40;65.80;;;;;;6183377;23;20044;-74
2022/06/22 03:20:58;;;;;;;1.38;1.23;;;22.40;65.80;;;;;;6183195;23;20441;-74
2022/06/22 03:24:02;;;;;;;1.42;1.20;;;22.40;65.80;;;;;;6206655;23;20091;-74
2022/06/22 03:26:30;;;;;;;1.25;1.08;;;22.40;65.80;;;;;;6184686;23;20235;-74
2022/06/22 03:29:23;;;;;;;6.20;1.30;;;22.30;65.80;;;;;;6183489;23;20005;-74
2022/06/22 03:31:53;;;;;;;3.35;1.10;;;22.40;65.90;;;;;;6183122;23;20441;-74
2022/06/22 03:34:59;;;;;;;4.63;1.42;;;22.40;66.00;;;;;;5452476;23;20050;-72
2022/06/22 03:37:34;;;;;;;1.85;1.30;;;22.40;66.70;;;;;;6183956;23;20017;-74
2022/06/22 03:40:07;;;;;;;2.58;1.27;;;22.40;66.10;;;;;;6159723;23;20009;-74
2022/06/22 03:42:35;;;;;;;2.78;1.33;;;22.40;66.00;;;;;;6159486;23;20009;-74
2022/06/22 03:45:07;;;;;;;2.70;1.10;;;22.40;66.10;;;;;;6183143;23;20001;-74
2022/06/22 03:47:36;;;;;;;1.65;1.40;;;22.40;66.00;;;;;;6159510;23;20001;-73
2022/06/22 03:50:05;;;;;;;4.40;1.20;;;22.40;66.00;;;;;;6184278;23;20029;-74
2022/06/22 03:52:39;;;;;;;3.28;1.30;;;22.40;66.00;;;;;;6182902;23;20005;-74
2022/06/22 03:55:18;;;;;;;3.40;1.30;;;22.40;66.00;;;;;;6183051;23;20514;-74
2022/06/22 03:57:45;;;;;;;2.20;1.38;;;22.30;66.00;;;;;;6160905;23;20035;-74
2022/06/22 04:00:12;;;;;;;2.22;1.17;;;22.40;66.00;;;;;;6158470;23;19997;-74
2022/06/22 04:02:38;;;;;;;2.05;1.10;;;22.40;66.00;;;;;;6158457;23;20039;-74
2022/06/22 04:05:04;;;;;;;2.38;1.20;;;22.30;66.00;;;;;;6182729;23;20010;-74
2022/06/22 04:07:33;;;;;;;1.83;1.20;;;22.30;66.00;;;;;;6183005;23;20399;-74
2022/06/22 04:09:59;;;;;;;1.55;1.15;;;22.40;66.10;;;;;;6158698;23;20001;-74
2022/06/22 04:12:32;;;;;;;1.33;1.17;;;22.40;66.00;;;;;;6182893;23;20067;-74
2022/06/22 04:15:29;;;;;;;1.60;1.20;;;22.40;66.10;;;;;;6158661;23;20444;-74
2022/06/22 04:17:58;;;;;;;1.50;1.20;;;22.40;66.10;;;;;;6182862;23;20024;-74
2022/06/22 04:20:49;;;;;;;1.23;1.02;;;22.40;66.10;;;;;;6158534;23;20067;-74
2022/06/22 04:23:13;;;;;;;2.05;1.02;;;22.40;66.00;;;;;;6182974;23;20059;-74
2022/06/22 04:25:39;;;;;;;1.98;1.10;;;22.40;66.10;;;;;;6184319;23;20005;-74
2022/06/22 04:28:06;;;;;;;1.50;1.10;;;22.40;66.00;;;;;;6183193;23;20437;-74
2022/06/22 04:30:34;;;;;;;2.03;1.17;;;22.40;66.00;;;;;;6158012;23;20345;-74
2022/06/22 04:33:21;;;;;;;2.50;1.13;;;22.40;66.00;;;;;;6158212;23;19997;-74
2022/06/22 04:35:55;;;;;;;1.42;1.10;;;22.40;66.00;;;;;;6182550;23;20596;-74
2022/06/22 04:38:42;;;;;;;1.20;1.10;;;22.40;66.10;;;;;;6161373;23;20005;-74
2022/06/22 04:41:32;;;;;;;2.35;1.20;;;22.30;66.00;;;;;;6184622;23;20044;-74
2022/06/22 04:44:25;;;;;;;3.67;1.38;;;22.40;66.00;;;;;;6184666;23;20004;-74
2022/06/22 04:46:55;;;;;;;3.83;1.20;;;22.40;66.00;;;;;;6168739;23;20009;-74
2022/06/22 04:49:28;;;;;;;2.13;1.17;;;22.40;66.00;;;;;;6160968;23;19997;-74
2022/06/22 04:52:08;;;;;;;1.55;1.17;;;22.40;66.00;;;;;;6185919;23;20346;-74
2022/06/22 04:54:36;;;;;;;2.38;1.27;;;22.30;65.90;;;;;;6161218;23;20079;-74
2022/06/22 04:57:05;;;;;;;1.83;1.20;;;22.40;66.00;;;;;;6159935;23;19997;-74
2022/06/22 04:59:31;;;;;;;3.40;1.17;;;22.40;66.00;;;;;;6184671;23;20008;-74
2022/06/22 05:01:59;;;;;;;1.52;0.98;;;22.30;66.00;;;;;;6159635;23;20032;-74
2022/06/22 05:04:34;;;;;;;1.80;1.10;;;22.30;66.00;;;;;;6159926;23;20032;-73
2022/06/22 05:07:27;;;;;;;2.38;1.42;;;22.30;66.00;;;;;;6161220;23;20314;-74
2022/06/22 05:09:59;;;;;;;1.00;0.90;;;22.30;66.00;;;;;;6185774;23;20038;-74
2022/06/22 05:12:25;;;;;;;3.17;1.02;;;22.30;66.00;;;;;;6160466;23;20009;-74
2022/06/22 05:14:52;;;;;;;1.20;1.10;;;22.30;66.00;;;;;;6184424;23;20004;-74
2022/06/22 05:17:27;;;;;;;1.75;1.20;;;22.30;66.00;;;;;;6184060;23;20001;-74
2022/06/22 05:20:10;;;;;;;1.55;1.23;;;22.30;66.10;;;;;;6185689;23;20068;-74
2022/06/22 05:22:36;;;;;;;2.65;1.20;;;22.30;66.00;;;;;;6159131;23;20005;-73
2022/06/22 05:25:03;;;;;;;6.43;1.40;;;22.30;66.10;;;;;;6182742;23;20139;-73
2022/06/22 05:27:40;;;;;;;2.78;1.02;;;22.30;66.10;;;;;;6157619;23;20056;-73
2022/06/22 05:30:06;;;;;;;1.85;1.38;;;22.30;66.10;;;;;;6183160;23;20005;-74
2022/06/22 05:32:34;;;;;;;1.40;0.90;;;22.30;66.20;;;;;;6158128;23;20043;-74
2022/06/22 05:35:01;;;;;;;1.10;1.00;;;22.30;66.20;;;;;;6183074;23;20009;-74
2022/06/22 05:37:32;;;;;;;1.00;0.90;;;22.30;66.20;;;;;;6183169;23;20041;-73
2022/06/22 05:39:58;;;;;;;1.35;0.82;;;22.30;66.20;;;;;;6160461;23;20068;-74
2022/06/22 05:42:24;;;;;;;0.90;0.90;;;22.30;66.30;;;;;;6159097;23;20078;-74
2022/06/22 05:44:51;;;;;;;1.50;0.90;;;22.30;66.30;;;;;;6159828;23;20005;-74
2022/06/22 05:47:29;;;;;;;1.30;1.20;;;22.30;66.20;;;;;;6159876;23;20005;-74
2022/06/22 05:50:00;;;;;;;2.60;1.40;;;22.30;66.20;;;;;;6159954;23;20377;-74
2022/06/22 05:52:35;;;;;;;1.92;1.00;;;22.30;66.30;;;;;;6184271;23;20088;-74
2022/06/22 05:55:09;;;;;;;10.95;1.63;;;22.30;66.30;;;;;;6160692;23;20001;-74
2022/06/22 05:57:36;;;;;;;2.45;1.20;;;22.30;66.30;;;;;;6160295;23;20071;-74
2022/06/22 06:00:23;;;;;;;1.60;1.10;;;22.30;66.30;;;;;;6183296;23;20005;-74
2022/06/22 06:03:10;;;;;;;1.95;1.20;;;22.30;66.30;;;;;;6159423;23;20341;-74
2022/06/22 06:05:42;;;;;;;2.45;1.00;;;22.30;67.30;;;;;;6183879;23;20083;-74
2022/06/22 06:08:09;;;;;;;;;;;22.30;66.30;;;;;;6184415;23;20136;-74
2022/06/22 06:10:42;;;;;;;2.55;1.75;;;22.30;66.30;;;;;;6183617;23;19900;-73
2022/06/22 06:13:32;;;;;;;2.83;2.15;;;22.30;66.20;;;;;;6159208;23;20001;-73
2022/06/22 06:15:59;;;;;;;1.90;1.70;;;22.30;64.50;;;;;;6183502;23;20031;-73
2022/06/22 06:18:36;;;;;;;3.03;2.13;;;22.20;63.70;;;;;;6159130;23;20085;-73
2022/06/22 06:21:15;;;;;;;2.30;1.70;;;22.20;63.40;;;;;;6159179;23;20080;-73
2022/06/22 06:23:55;;;;;;;2.30;1.75;;;22.20;63.70;;;;;;6183537;23;20000;-73
2022/06/22 06:29:24;;;;;;;4.10;1.83;;;22.20;63.80;;;;;;6183595;23;20100;-73
2022/06/22 06:31:59;;;;;;;3.45;2.03;;;22.10;63.60;;;;;;6158703;23;20013;-73
2022/06/22 06:34:37;;;;;;;3.25;2.00;;;22.10;63.60;;;;;;6183855;23;20076;-73
2022/06/22 06:37:15;;;;;;;2.25;1.80;;;22.20;63.70;;;;;;6158777;23;20009;-74
2022/06/22 06:39:44;;;;;;;8.23;2.45;;;22.10;63.60;;;;;;6158726;23;20001;-73
2022/06/22 06:42:31;;;;;;;15.13;4.38;;;22.10;63.90;;;;;;6183496;23;20449;-73
2022/06/22 06:44:56;;;;;;;8.27;3.60;;;22.10;64.60;;;;;;6159567;23;20452;-73
2022/06/22 06:47:32;;;;;;;7.45;2.78;;;22.10;64.50;;;;;;6158421;23;20032;-74
2022/06/22 06:50:20;;;;;;;9.10;3.78;;;22.10;64.60;;;;;;6183203;23;20005;-73
2022/06/22 06:52:57;;;;;;;9.65;3.50;;;22.10;64.60;;;;;;6161929;23;20012;-73
2022/06/22 06:55:47;;;;;;;12.45;4.40;;;22.10;64.60;;;;;;6183326;23;20005;-73
2022/06/22 06:58:37;;;;;;;10.98;4.35;;;22.10;64.60;;;;;;6183030;23;20001;-73
2022/06/22 07:01:03;;;;;;;8.05;3.95;;;22.10;64.70;;;;;;6182939;23;20017;-73
2022/06/22 07:03:37;;;;;;;14.23;4.35;;;22.10;65.00;;;;;;6183338;23;20005;-73
2022/06/22 07:06:03;;;;;;;15.68;4.07;;;22.00;64.90;;;;;;6160105;23;20051;-73
2022/06/22 07:08:36;;;;;;;8.70;3.67;;;22.00;64.80;;;;;;6183160;23;20079;-73
2022/06/22 07:11:12;;;;;;;10.55;4.00;;;22.10;64.90;;;;;;6158476;23;20456;-73
2022/06/22 07:13:48;;;;;;;8.68;3.75;;;22.00;65.10;;;;;;6182931;23;20001;-73
2022/06/22 07:16:16;;;;;;;9.60;4.00;;;22.00;65.10;;;;;;6183279;23;20004;-73
2022/06/22 07:18:58;;;;;;;8.05;3.72;;;22.00;65.20;;;;;;6158859;23;20002;-73
2022/06/22 07:21:53;;;;;;;9.80;3.63;;;22.00;65.20;;;;;;6160942;23;20005;-73
2022/06/22 07:24:39;;;;;;;10.73;4.15;;;22.00;65.10;;;;;;6183097;23;20001;-73
2022/06/22 07:27:22;;;;;;;10.55;3.38;;;22.00;65.00;;;;;;6182939;23;20070;-73
2022/06/22 07:29:54;;;;;;;7.45;3.65;;;22.00;65.00;;;;;;6184414;23;20001;-73
2022/06/22 07:32:37;;;;;;;8.47;3.70;;;22.00;65.00;;;;;;6134234;23;20012;-73
2022/06/22 07:35:32;;;;;;;8.38;3.75;;;22.00;65.00;;;;;;6159845;23;20074;-73
2022/06/22 07:38:16;;;;;;;7.03;3.55;;;22.00;65.00;;;;;;6150990;23;20472;-73
2022/06/22 07:41:18;;;;;;;7.20;3.60;;;22.00;65.00;;;;;;6154714;23;20076;-73
2022/06/22 07:43:28;;;;;;;8.50;3.35;;;22.00;65.00;;;;;;6154648;23;20450;-73
2022/06/22 07:45:54;;;;;;;10.75;4.43;;;22.00;65.00;;;;;;6128847;23;20361;-73
2022/06/22 07:48:19;;;;;;;8.23;3.92;;;22.00;65.00;;;;;;6128750;23;20049;-73
2022/06/22 07:50:56;;;;;;;12.73;3.30;;;22.00;65.00;;;;;;6128598;23;19998;-73
2022/06/22 07:53:48;;;;;;;9.20;3.35;;;22.00;64.80;;;;;;6129469;23;20080;-73
2022/06/22 07:56:26;;;;;;;6.38;3.00;;;22.00;64.80;;;;;;6153060;23;20001;-73
2022/06/22 07:58:57;;;;;;;6.38;3.50;;;22.00;64.90;;;;;;6154783;23;20030;-73
2022/06/22 08:01:29;;;;;;;7.97;3.20;;;22.00;64.90;;;;;;6129187;23;20059;-73
2022/06/22 08:04:01;;;;;;;6.47;3.47;;;22.00;64.80;;;;;;6129688;23;20009;-73
2022/06/22 08:06:29;;;;;;;4.73;2.97;;;22.00;64.90;;;;;;6128944;23;20005;-73
2022/06/22 08:09:00;;;;;;;6.55;2.90;;;22.00;64.90;;;;;;6128974;23;20005;-73
2022/06/22 08:11:33;;;;;;;6.00;2.90;;;22.00;64.90;;;;;;6130447;23;20064;-73
2022/06/22 08:14:13;;;;;;;5.70;2.72;;;22.00;64.80;;;;;;6154943;23;20338;-73
2022/06/22 08:16:43;;;;;;;7.15;3.08;;;22.00;64.80;;;;;;6155200;23;20009;-73
2022/06/22 08:19:08;;;;;;;5.68;2.60;;;22.00;64.80;;;;;;6130707;23;20102;-73
2022/06/22 08:21:41;;;;;;;7.82;3.53;;;22.00;64.90;;;;;;6155107;23;20046;-73
2022/06/22 08:24:09;;;;;;;7.13;3.17;;;22.00;64.80;;;;;;6131732;23;20315;-73
2022/06/22 08:26:35;;;;;;;6.25;2.78;;;22.00;64.80;;;;;;6154812;23;20120;-73
2022/06/22 08:29:01;;;;;;;8.93;3.17;;;21.90;64.80;;;;;;6130212;23;20041;-73
2022/06/22 08:31:30;;;;;;;4.65;3.00;;;21.90;64.80;;;;;;6156266;23;20321;-73
2022/06/22 08:33:58;;;;;;;6.70;2.70;;;21.90;64.80;;;;;;6130634;23;20005;-73
2022/06/22 08:36:40;;;;;;;7.78;2.80;;;21.90;64.80;;;;;;6144746;23;20025;-73
2022/06/22 08:39:23;;;;;;;6.97;3.05;;;21.90;64.90;;;;;;6184293;23;20024;-73
2022/06/22 08:42:02;;;;;;;;;;;21.90;64.80;;;;;;6160984;23;20005;-73
2022/06/22 08:44:46;;;;;;;4.32;2.60;;;21.90;64.70;;;;;;6185921;23;20241;-73
2022/06/22 08:47:19;;;;;;;6.53;2.70;;;21.90;64.80;;;;;;6185789;23;20009;-73
2022/06/22 08:49:54;;;;;;;5.53;2.67;;;21.90;64.80;;;;;;6185897;23;20076;-73
2022/06/22 08:52:28;;;;;;;5.38;2.58;;;21.90;64.80;;;;;;6185820;23;20084;-73
2022/06/22 08:55:17;;;;;;;4.65;2.40;;;21.90;64.80;;;;;;6184295;23;19997;-73
2022/06/22 08:57:49;;;;;;;4.93;2.28;;;21.90;64.80;;;;;;6065979;23;20011;-73
2022/06/22 09:00:24;;;;;;;5.13;2.63;;;21.90;64.80;;;;;;6065972;23;20738;-73
2022/06/22 09:03:07;;;;;;;5.82;2.45;;;21.90;64.80;;;;;;6042175;23;20011;-73
2022/06/22 09:05:33;;;;;;;3.30;2.40;;;21.90;64.90;;;;;;6065985;23;20014;-73
2022/06/22 09:08:17;;;;;;;4.95;2.60;;;21.90;64.80;;;;;;6065646;23;20007;-73
2022/06/22 09:10:55;;;;;;;3.85;2.40;;;21.90;64.90;;;;;;6065779;23;20010;-73
2022/06/22 09:13:29;;;;;;;4.70;2.63;;;21.90;64.80;;;;;;6066068;23;20003;-73
2022/06/22 09:16:14;;;;;;;4.95;2.50;;;21.90;64.80;;;;;;6066053;23;20066;-73
2022/06/22 09:18:55;;;;;;;6.20;3.00;;;21.90;64.80;;;;;;6044184;23;20002;-73
2022/06/22 09:21:51;;;;;;;3.60;2.30;;;21.90;64.80;;;;;;6044377;23;20018;-73
2022/06/22 09:24:36;;;;;;;5.68;2.38;;;21.90;64.80;;;;;;6065342;23;20011;-73
2022/06/22 09:27:11;;;;;;;3.15;2.20;;;21.90;64.90;;;;;;6042080;23;20089;-73
2022/06/22 09:29:36;;;;;;;5.80;2.80;;;21.90;64.90;;;;;;6065745;23;20344;-73
2022/06/22 09:32:10;;;;;;;6.03;2.60;;;21.90;64.80;;;;;;6065670;23;20007;-73
2022/06/22 09:34:40;;;;;;;5.43;2.80;;;21.90;64.90;;;;;;6119438;23;20005;-73
2022/06/22 09:37:34;;;;;;;4.18;2.40;;;21.90;64.90;;;;;;6208212;23;20036;-73
2022/06/22 09:40:08;;;;;;;6.07;2.70;;;21.90;64.90;;;;;;6193265;23;20028;-73
2022/06/22 09:42:39;;;;;;;3.10;2.00;;;21.90;65.00;;;;;;6189717;23;20032;-73
2022/06/22 09:45:26;;;;;;;3.70;2.35;;;21.90;65.00;;;;;;6215328;23;20001;-73
2022/06/22 09:48:20;;;;;;;3.15;2.13;;;21.90;64.90;;;;;;6215476;23;20001;-73
2022/06/22 09:51:01;;;;;;;5.47;2.20;;;21.90;64.90;;;;;;6189138;23;20005;-73
2022/06/22 09:53:45;;;;;;;4.13;2.30;;;21.90;64.90;;;;;;6188594;23;20055;-73
2022/06/22 09:56:33;;;;;;;3.60;2.13;;;21.90;64.90;;;;;;6215365;23;20011;-73
2022/06/22 09:59:07;;;;;;;5.10;2.40;;;21.90;64.90;;;;;;6215353;23;20499;-73
2022/06/22 10:01:54;;;;;;;3.13;2.30;;;21.90;64.90;;;;;;6188910;23;20083;-73
2022/06/22 10:04:38;;;;;;;2.72;2.08;;;21.90;64.90;;;;;;6188797;23;20069;-73
2022/06/22 10:07:07;;;;;;;3.55;2.20;;;21.90;64.90;;;;;;6214842;23;20005;-73
2022/06/22 10:09:36;;;;;;;3.63;2.03;;;21.90;64.90;;;;;;6215292;23;20028;-73
2022/06/22 10:12:10;;;;;;;4.80;2.22;;;21.90;64.90;;;;;;6188720;23;20028;-73
2022/06/22 10:15:07;;;;;;;2.92;1.80;;;21.90;64.90;;;;;;6215208;23;20039;-73
2022/06/22 10:17:42;;;;;;;3.85;1.92;;;21.90;64.90;;;;;;6215132;23;20072;-73
2022/06/22 10:20:25;;;;;;;2.90;1.85;;;21.90;64.90;;;;;;6215209;23;20444;-73
2022/06/22 10:22:59;;;;;;;2.90;1.90;;;21.90;64.90;;;;;;6215145;23;20355;-73
2022/06/22 10:25:45;;;;;;;3.33;1.85;;;21.90;64.90;;;;;;6164854;23;20000;-73
2022/06/22 10:28:33;;;;;;;3.20;2.05;;;21.90;64.90;;;;;;6188567;23;20341;-73
2022/06/22 10:31:33;;;;;;;3.42;1.90;;;21.90;64.90;;;;;;6189756;23;20000;-73
2022/06/22 10:34:25;;;;;;;2.45;2.10;;;21.90;64.90;;;;;;6168140;23;20003;-73
2022/06/22 10:37:15;;;;;;;3.45;1.83;;;21.90;65.00;;;;;;6168926;23;20024;-73
2022/06/22 10:39:53;;;;;;;4.20;2.10;;;21.90;65.00;;;;;;6214774;23;19997;-73
2022/06/22 10:45:24;;;;;;;1.92;1.77;;;21.90;65.00;;;;;;6214918;23;20070;-73
2022/06/22 10:47:49;;;;;;;2.22;1.88;;;21.90;65.00;;;;;;6214776;23;20015;-73
2022/06/22 10:50:50;;;;;;;2.65;2.00;;;21.90;65.00;;;;;;6214503;23;20005;-73
2022/06/22 10:53:53;;;;;;;4.10;1.83;;;21.80;64.90;;;;;;6193636;23;20012;-73
2022/06/22 10:56:31;;;;;;;;;;;21.80;64.90;;;;;;6215314;23;20035;-73
2022/06/22 10:59:11;;;;;;;3.13;1.92;;;21.80;64.90;;;;;;6214696;23;19900;-73
2022/06/22 11:01:43;;;;;;;2.53;2.28;;;21.80;65.00;;;;;;6214748;23;20005;-73
2022/06/22 11:04:11;;;;;;;3.30;2.20;;;21.80;65.00;;;;;;6214588;23;20043;-73
2022/06/22 11:06:56;;;;;;;2.65;2.13;;;21.90;65.00;;;;;;6214775;23;20001;-73
2022/06/22 11:09:47;;;;;;;2.47;2.28;;;21.90;65.00;;;;;;6214743;23;19997;-73
2022/06/22 11:12:35;;;;;;;2.72;1.90;;;21.90;65.00;;;;;;6192185;23;20007;-73
2022/06/22 11:15:29;;;;;;;2.17;1.85;;;21.90;65.10;;;;;;6188189;23;20011;-73
2022/06/22 11:18:07;;;;;;;2.08;1.80;;;21.90;65.00;;;;;;6165234;23;20024;-73
2022/06/22 11:20:41;;;;;;;2.53;1.80;;;21.90;65.10;;;;;;6187962;23;20075;-73
2022/06/22 11:23:10;;;;;;;3.15;2.20;;;21.90;65.10;;;;;;6214623;23;20000;-73
2022/06/22 11:31:59;;;;;;;3.67;1.92;;;21.90;65.10;;;;;;6192046;23;20063;-73
2022/06/22 11:34:35;;;;;;;;;;;21.90;65.10;;;;;;6214736;23;20007;-73
2022/06/22 11:37:26;;;;;;;2.90;1.90;;;21.90;65.10;;;;;;6187828;23;19958;-73
2022/06/22 11:40:02;;;;;;;3.10;1.73;;;21.90;65.10;;;;;;6188016;23;20046;-73
2022/06/22 11:42:48;;;;;;;2.60;2.10;;;21.90;65.20;;;;;;6214469;23;20395;-73
2022/06/22 11:45:51;;;;;;;3.40;1.90;;;21.90;65.20;;;;;;6214757;23;20032;-73
2022/06/22 11:48:45;;;;;;;4.07;2.25;;;21.90;65.20;;;;;;6216239;23;20000;-73
2022/06/22 11:51:41;;;;;;;4.15;2.60;;;21.90;65.10;;;;;;6216188;23;20008;-73
2022/06/22 11:54:27;;;;;;;3.53;2.85;;;21.90;65.10;;;;;;6216497;23;20025;-73
2022/06/22 11:56:55;;;;;;;4.03;2.70;;;21.90;65.00;;;;;;6216538;23;20005;-73
2022/06/22 11:59:27;;;;;;;4.40;2.35;;;21.90;65.10;;;;;;6189703;23;20428;-73
2022/06/22 12:02:17;;;;;;;3.40;2.07;;;21.90;65.10;;;;;;6216274;23;19997;-73
2022/06/22 12:04:52;;;;;;;3.88;2.70;;;21.90;65.10;;;;;;6193431;23;20028;-73
2022/06/22 12:07:38;;;;;;;5.10;2.90;;;21.90;65.20;;;;;;6164981;23;20348;-73
2022/06/22 12:10:15;;;;;;;2.35;2.10;;;21.90;65.20;;;;;;6215199;23;20012;-73
2022/06/22 12:12:46;;;;;;;2.17;1.98;;;21.90;65.30;;;;;;6216441;23;20016;-73
2022/06/22 12:15:33;;;;;;;2.80;1.83;;;21.90;65.30;;;;;;6216126;23;20036;-73
2022/06/22 12:18:05;;;;;;;3.00;1.90;;;21.90;65.30;;;;;;6216162;23;20510;-73
2022/06/22 12:20:51;;;;;;;2.78;2.17;;;21.90;65.30;;;;;;6216200;23;20063;-73
2022/06/22 12:23:52;;;;;;;2.47;2.00;;;21.90;65.30;;;;;;6216124;23;20337;-73
2022/06/22 12:26:20;;;;;;;2.58;2.25;;;21.90;65.40;;;;;;6193601;23;20001;-73
2022/06/22 12:29:23;;;;;;;3.00;1.90;;;21.90;65.40;;;;;;6216199;23;20023;-73
2022/06/22 12:31:55;;;;;;;1.90;1.80;;;21.90;65.40;;;;;;6215835;23;20027;-73
2022/06/22 12:34:39;;;;;;;2.03;1.92;;;21.90;65.50;;;;;;6165393;23;19997;-73
2022/06/22 12:37:10;;;;;;;2.45;1.95;;;21.90;65.50;;;;;;6165600;23;20087;-73
2022/06/22 12:39:39;;;;;;;3.53;2.13;;;21.90;65.50;;;;;;6165447;23;20445;-73
2022/06/22 12:42:29;;;;;;;2.42;1.75;;;21.90;65.50;;;;;;6189577;23;20004;-73
2022/06/22 12:45:28;;;;;;;5.20;2.25;;;21.90;65.40;;;;;;6215865;23;20050;-73
2022/06/22 12:48:40;;;;;;;2.45;2.22;;;21.90;65.40;;;;;;6216103;23;20012;-73
2022/06/22 12:51:23;;;;;;;2.35;1.70;;;22.00;65.50;;;;;;6168712;23;20000;-73
2022/06/22 12:54:32;;;;;;;3.20;2.20;;;21.90;65.50;;;;;;6216007;23;20071;-73
2022/06/22 12:57:19;;;;;;;2.25;1.70;;;21.90;65.50;;;;;;6189035;23;20444;-73
2022/06/22 13:00:13;;;;;;;2.28;2.08;;;21.90;65.50;;;;;;6164834;23;20001;-73
2022/06/22 13:02:40;;;;;;;2.33;1.90;;;21.90;65.50;;;;;;6174483;23;20011;-73
2022/06/22 13:05:22;;;;;;;1.88;1.70;;;22.00;65.60;;;;;;6164843;23;20005;-73
2022/06/22 13:08:23;;;;;;;2.75;1.70;;;21.90;65.50;;;;;;6165278;23;20404;-73
2022/06/22 13:10:56;;;;;;;1.90;1.70;;;21.90;65.50;;;;;;6070475;23;20006;-73
2022/06/22 13:13:47;;;;;;;1.77;1.65;;;21.90;65.60;;;;;;6071538;23;20010;-73
2022/06/22 13:16:17;;;;;;;2.22;1.75;;;21.90;65.50;;;;;;6084186;23;20447;-73
2022/06/22 13:19:03;;;;;;;2.20;1.80;;;21.90;65.50;;;;;;6071068;23;20009;-73
2022/06/22 13:21:46;;;;;;;3.95;2.15;;;21.90;65.50;;;;;;6070570;23;20050;-73
2022/06/22 13:24:12;;;;;;;2.25;1.92;;;21.90;65.40;;;;;;6094712;23;20017;-73
2022/06/22 13:27:08;;;;;;;2.20;2.00;;;22.00;65.50;;;;;;6094775;23;20006;-73
2022/06/22 13:29:46;;;;;;;1.70;1.60;;;21.90;65.50;;;;;;6094131;23;20006;-73
2022/06/22 13:32:12;;;;;;;2.20;1.73;;;21.90;65.50;;;;;;6070553;23;20014;-73
2022/06/22 13:34:45;;;;;;;1.83;1.58;;;21.90;65.50;;;;;;6070680;23;20458;-73
2022/06/22 13:37:11;;;;;;;2.70;1.85;;;22.00;65.60;;;;;;6070997;23;20085;-73
2022/06/22 13:39:58;;;;;;;3.03;1.88;;;22.00;65.60;;;;;;6070155;23;20135;-73
2022/06/22 13:42:38;;;;;;;2.25;1.70;;;22.00;65.60;;;;;;6094323;23;20081;-73
2022/06/22 13:45:15;;;;;;;2.67;2.00;;;21.90;65.60;;;;;;6072272;23;20016;-73
2022/06/22 13:48:00;;;;;;;2.42;2.00;;;21.90;65.50;;;;;;6185496;23;20005;-73
2022/06/22 13:51:07;;;;;;;2.40;1.83;;;22.00;65.50;;;;;;6183947;23;20059;-73
2022/06/22 13:54:03;;;;;;;3.25;1.88;;;21.90;65.50;;;;;;6185304;23;20112;-73
2022/06/22 13:56:43;;;;;;;1.75;1.60;;;22.00;65.60;;;;;;6185155;23;20076;-73
2022/06/22 13:59:30;;;;;;;1.98;1.70;;;22.00;65.60;;;;;;6184884;23;20004;-73
2022/06/22 14:02:22;;;;;;;2.97;2.00;;;21.90;65.50;;;;;;6184061;23;20005;-73